createdAt,value
2018-10-21T00:01:30.995Z,62.30
2018-10-21T00:04:00.421Z,60.87
2018-10-21T00:06:30.549Z,64.07
2018-10-21T00:09:00.682Z,64.03
2018-10-21T00:11:30.006Z,60.00
2018-10-21T00:13:59.374Z,58.53
2018-10-21T00:16:28.832Z,57.70
2018-10-21T00:18:58.174Z,62.73
2018-10-21T00:21:27.523Z,60.60
2018-10-21T00:23:56.940Z,68.37
2018-10-21T00:26:26.309Z,64.03
2018-10-21T00:28:55.698Z,62.87
2018-10-21T00:31:25.049Z,63.40
2018-10-21T00:33:54.449Z,64.60
2018-10-21T00:36:23.881Z,66.93
2018-10-21T00:38:53.202Z,62.50
2018-10-21T00:41:22.613Z,62.97
2018-10-21T00:43:51.932Z,62.17
2018-10-21T00:46:22.054Z,62.10
2018-10-21T00:48:51.393Z,64.83
2018-10-21T00:51:20.772Z,68.03
2018-10-21T00:53:50.092Z,61.50
2018-10-21T00:56:19.506Z,61.43
2018-10-21T00:58:48.797Z,62.53
2018-10-21T01:01:18.134Z,61.03
2018-10-21T01:03:47.490Z,64.93
2018-10-21T01:06:16.788Z,62.13
2018-10-21T01:08:46.122Z,62.27
2018-10-21T01:11:16.227Z,59.50
2018-10-21T01:13:45.529Z,62.23
2018-10-21T01:16:14.935Z,60.37
2018-10-21T01:18:44.217Z,57.57
2018-10-21T01:21:13.620Z,63.10
2018-10-21T01:23:42.874Z,57.13
2018-10-21T01:26:12.298Z,56.03
2018-10-21T01:28:41.731Z,58.63
2018-10-21T01:31:11.183Z,64.03
2018-10-21T01:33:40.562Z,58.73
2018-10-21T01:36:10.190Z,58.87
2018-10-21T01:38:39.647Z,60.83
2018-10-21T01:41:09.022Z,56.27
2018-10-21T01:43:38.415Z,55.93
2018-10-21T01:46:07.708Z,56.70
2018-10-21T01:48:37.081Z,59.33
2018-10-21T01:51:06.540Z,55.53
2018-10-21T01:53:35.932Z,55.40
2018-10-21T01:56:05.587Z,53.63
2018-10-21T01:58:34.898Z,52.97
2018-10-21T02:01:04.650Z,55.20
2018-10-21T02:03:34.740Z,51.40
2018-10-21T02:06:04.097Z,51.03
2018-10-21T02:08:34.216Z,55.23
2018-10-21T02:11:03.602Z,54.93
2018-10-21T02:13:33.770Z,55.60
2018-10-21T02:16:03.306Z,52.43
2018-10-21T02:18:33.664Z,52.43
2018-10-21T02:21:02.981Z,56.93
2018-10-21T02:23:32.313Z,52.83
2018-10-21T02:26:01.682Z,51.20
2018-10-21T02:28:31.091Z,51.47
2018-10-21T02:31:00.483Z,56.90
2018-10-21T02:33:29.938Z,54.57
2018-10-21T02:35:59.176Z,51.37
2018-10-21T02:38:28.501Z,56.43
2018-10-21T02:41:39.292Z,54.63
2018-10-21T02:44:09.981Z,53.33
2018-10-21T02:46:40.224Z,52.23
2018-10-21T02:49:10.614Z,50.73
2018-10-21T02:51:40.156Z,54.87
2018-10-21T02:54:10.045Z,51.90
2018-10-21T02:56:39.363Z,58.50
2018-10-21T02:59:08.771Z,48.87
2018-10-21T03:01:38.125Z,53.90
2018-10-21T03:04:07.507Z,55.47
2018-10-21T03:06:36.830Z,54.93
2018-10-21T03:09:07.916Z,54.00
2018-10-21T03:11:37.267Z,53.57
2018-10-21T03:14:06.728Z,55.23
2018-10-21T03:16:36.069Z,53.17
2018-10-21T03:19:05.639Z,51.13
2018-10-21T03:21:35.154Z,54.27
2018-10-21T03:24:04.624Z,51.47
2018-10-21T03:26:34.722Z,57.43
2018-10-21T03:29:05.158Z,54.97
2018-10-21T03:31:34.500Z,54.77
2018-10-21T03:34:04.698Z,57.57
2018-10-21T03:36:33.844Z,61.90
2018-10-21T03:39:03.353Z,57.53
2018-10-21T03:41:32.706Z,59.33
2018-10-21T03:44:03.081Z,61.23
2018-10-21T03:46:32.443Z,59.10
2018-10-21T03:49:01.753Z,63.33
2018-10-21T03:51:31.090Z,61.77
2018-10-21T03:54:00.444Z,65.43
2018-10-21T03:56:29.778Z,60.37
2018-10-21T03:58:59.109Z,59.90
2018-10-21T04:01:28.659Z,59.93
2018-10-21T04:03:58.026Z,61.80
2018-10-21T04:06:27.361Z,62.00
2018-10-21T04:08:56.665Z,63.37
2018-10-21T04:11:26.023Z,61.63
2018-10-21T04:13:55.781Z,62.53
2018-10-21T04:16:25.119Z,59.10
2018-10-21T04:18:54.463Z,65.87
2018-10-21T04:21:23.896Z,59.13
2018-10-21T04:23:53.258Z,61.93
2018-10-21T04:26:22.733Z,62.90
2018-10-21T04:28:52.079Z,69.37
2018-10-21T04:31:21.434Z,63.40
2018-10-21T04:33:51.632Z,63.77
2018-10-21T04:36:24.970Z,74.40
2018-10-21T04:40:18.387Z,70.40
2018-10-21T04:42:48.152Z,76.50
2018-10-21T04:45:19.627Z,77.30
2018-10-21T04:47:49.044Z,72.73
2018-10-21T04:50:18.399Z,73.17
2018-10-21T04:52:47.782Z,77.57
2018-10-21T04:55:17.437Z,75.87
2018-10-21T04:57:47.566Z,79.30
2018-10-21T05:00:18.716Z,74.63
2018-10-21T05:02:48.114Z,79.33
2018-10-21T05:05:17.470Z,78.53
2018-10-21T05:07:46.783Z,77.43
2018-10-21T05:10:21.939Z,72.30
2018-10-21T05:12:51.300Z,72.57
2018-10-21T05:15:21.257Z,72.23
2018-10-21T05:17:50.611Z,66.13
2018-10-21T05:20:19.975Z,71.53
2018-10-21T05:22:49.391Z,67.60
2018-10-21T05:25:18.694Z,69.57
2018-10-21T05:27:48.659Z,67.60
2018-10-21T05:30:18.642Z,63.47
2018-10-21T05:32:47.991Z,64.00
2018-10-21T05:35:18.213Z,65.43
2018-10-21T05:37:47.609Z,63.17
2018-10-21T05:40:18.312Z,68.63
2018-10-21T05:42:47.863Z,61.87
2018-10-21T05:45:17.192Z,60.67
2018-10-21T05:47:46.629Z,62.90
2018-10-21T05:50:16.613Z,63.20
2018-10-21T05:52:46.026Z,66.37
2018-10-21T05:55:16.018Z,62.83
2018-10-21T05:57:45.500Z,63.37
2018-10-21T06:00:17.669Z,67.37
2018-10-21T06:02:47.112Z,63.23
2018-10-21T06:05:44.047Z,62.50
2018-10-21T06:08:13.373Z,65.10
2018-10-21T06:10:43.410Z,67.87
2018-10-21T06:13:13.085Z,72.20
2018-10-21T06:15:42.500Z,69.27
2018-10-21T06:18:14.502Z,70.47
2018-10-21T06:20:51.940Z,69.83
2018-10-21T06:23:21.253Z,69.27
2018-10-21T06:25:50.569Z,70.70
2018-10-21T06:28:20.047Z,68.60
2018-10-21T06:30:49.640Z,70.33
2018-10-21T06:33:19.071Z,71.03
2018-10-21T06:35:48.402Z,68.20
2018-10-21T06:38:17.878Z,63.03
2018-10-21T06:40:47.262Z,73.20
2018-10-21T06:43:16.610Z,69.93
2018-10-21T06:45:46.047Z,73.57
2018-10-21T06:48:15.462Z,71.67
2018-10-21T06:50:44.782Z,70.17
2018-10-21T06:53:14.125Z,70.43
2018-10-21T06:55:43.567Z,68.40
2018-10-21T06:58:13.801Z,71.00
2018-10-21T07:00:43.226Z,74.77
2018-10-21T07:03:12.570Z,75.43
2018-10-21T07:06:17.973Z,71.83
2018-10-21T07:08:47.982Z,65.53
2018-10-21T07:11:17.437Z,64.23
2018-10-21T07:13:46.832Z,65.53
2018-10-21T07:16:16.518Z,62.07
2018-10-21T07:18:47.035Z,64.40
2018-10-21T07:21:16.731Z,62.07
2018-10-21T07:23:46.350Z,59.23
2018-10-21T07:26:15.701Z,57.03
2018-10-21T07:28:45.033Z,57.53
2018-10-21T07:31:14.402Z,55.77
2018-10-21T07:33:43.832Z,54.73
2018-10-21T07:36:13.239Z,54.47
2018-10-21T07:38:42.672Z,53.07
2018-10-21T07:41:12.012Z,55.87
2018-10-21T07:43:41.408Z,55.07
2018-10-21T07:46:10.796Z,52.47
2018-10-21T07:48:40.221Z,52.43
2018-10-21T07:51:09.555Z,51.57
2018-10-21T07:53:39.005Z,52.27
2018-10-21T07:56:08.349Z,49.90
2018-10-21T07:58:37.709Z,51.03
2018-10-21T08:01:07.132Z,48.80
2018-10-21T08:03:36.410Z,47.70
2018-10-21T08:06:34.772Z,46.57
2018-10-21T08:09:06.298Z,44.50
2018-10-21T08:11:35.781Z,48.80
2018-10-21T08:14:05.131Z,42.60
2018-10-21T08:16:35.246Z,43.00
2018-10-21T08:19:04.664Z,43.40
2018-10-21T08:21:34.162Z,42.80
2018-10-21T08:24:03.595Z,41.13
2018-10-21T08:26:33.985Z,41.27
2018-10-21T08:29:04.107Z,42.83
2018-10-21T08:31:34.132Z,43.57
2018-10-21T08:34:03.651Z,39.43
2018-10-21T08:36:32.990Z,42.03
2018-10-21T08:39:02.337Z,44.20
2018-10-21T08:41:31.929Z,41.03
2018-10-21T08:44:01.332Z,42.33
2018-10-21T08:46:30.807Z,40.53
2018-10-21T08:49:00.127Z,40.43
2018-10-21T08:51:29.473Z,40.33
2018-10-21T08:53:58.797Z,41.23
2018-10-21T08:56:28.178Z,40.80
2018-10-21T08:58:58.480Z,43.23
2018-10-21T09:01:27.971Z,43.60
2018-10-21T09:03:57.305Z,40.03
2018-10-21T09:06:26.613Z,40.33
2018-10-21T09:08:56.202Z,40.53
2018-10-21T09:11:26.407Z,41.53
2018-10-21T09:13:55.853Z,40.87
2018-10-21T09:16:25.330Z,44.43
2018-10-21T09:18:54.686Z,41.47
2018-10-21T09:21:23.982Z,41.73
2018-10-21T09:23:53.404Z,43.67
2018-10-21T09:26:22.698Z,41.93
2018-10-21T09:28:52.041Z,45.70
2018-10-21T09:31:21.420Z,43.63
2018-10-21T09:33:50.869Z,43.30
2018-10-21T09:36:20.305Z,43.73
2018-10-21T09:38:49.932Z,41.37
2018-10-21T09:41:19.279Z,41.53
2018-10-21T09:43:48.654Z,41.03
2018-10-21T09:46:18.108Z,40.33
2018-10-21T09:48:47.423Z,43.53
2018-10-21T09:51:16.747Z,39.67
2018-10-21T09:53:46.185Z,40.83
2018-10-21T09:56:15.621Z,39.67
2018-10-21T09:58:45.049Z,39.60
2018-10-21T10:01:19.624Z,39.97
2018-10-21T10:03:49.013Z,40.93
2018-10-21T10:06:18.341Z,38.77
2018-10-21T10:08:47.780Z,38.50
2018-10-21T10:11:17.144Z,41.33
2018-10-21T10:13:46.499Z,42.47
2018-10-21T10:16:16.526Z,38.57
2018-10-21T10:18:45.886Z,40.07
2018-10-21T10:21:15.259Z,40.97
2018-10-21T10:23:44.615Z,39.10
2018-10-21T10:26:13.976Z,38.50
2018-10-21T10:28:43.619Z,39.37
2018-10-21T10:31:13.032Z,38.50
2018-10-21T10:33:42.451Z,40.90
2018-10-21T10:36:11.899Z,41.10
2018-10-21T10:38:41.321Z,39.23
2018-10-21T10:41:10.659Z,38.37
2018-10-21T10:43:39.990Z,40.13
2018-10-21T10:46:09.375Z,43.73
2018-10-21T10:48:38.778Z,40.20
2018-10-21T10:51:08.982Z,40.03
2018-10-21T10:53:38.374Z,40.77
2018-10-21T10:56:07.844Z,39.80
2018-10-21T10:58:37.159Z,39.47
2018-10-21T11:01:06.625Z,37.53
2018-10-21T11:03:35.997Z,40.33
2018-10-21T11:06:05.428Z,42.67
2018-10-21T11:08:34.725Z,38.30
2018-10-21T11:11:04.110Z,40.27
2018-10-21T11:13:33.437Z,43.10
2018-10-21T11:16:03.695Z,37.23
2018-10-21T11:18:33.023Z,40.27
2018-10-21T11:21:02.706Z,39.93
2018-10-21T11:23:32.247Z,40.27
2018-10-21T11:26:01.863Z,38.77
2018-10-21T11:28:31.245Z,40.93
2018-10-21T11:31:00.589Z,38.20
2018-10-21T11:33:29.936Z,37.10
2018-10-21T11:35:59.327Z,40.80
2018-10-21T11:38:28.695Z,38.03
2018-10-21T11:40:58.042Z,41.43
2018-10-21T11:43:27.407Z,39.47
2018-10-21T11:45:56.754Z,38.23
2018-10-21T11:48:26.138Z,39.23
2018-10-21T11:50:55.617Z,41.20
2018-10-21T11:53:24.986Z,39.53
2018-10-21T11:55:54.359Z,39.13
2018-10-21T11:58:23.722Z,41.27
2018-10-21T12:00:53.142Z,38.67
2018-10-21T12:03:22.486Z,39.07
2018-10-21T12:05:51.944Z,39.27
2018-10-21T12:08:21.286Z,38.43
2018-10-21T12:10:50.648Z,42.17
2018-10-21T12:13:20.067Z,40.97
2018-10-21T12:15:49.560Z,38.83
2018-10-21T12:18:18.969Z,41.97
2018-10-21T12:20:48.301Z,39.67
2018-10-21T12:23:17.630Z,39.30
2018-10-21T12:25:47.815Z,39.03
2018-10-21T12:28:17.222Z,44.10
2018-10-21T12:30:47.273Z,38.13
2018-10-21T12:33:16.642Z,37.33
2018-10-21T12:35:45.964Z,36.90
2018-10-21T12:38:15.355Z,40.00
2018-10-21T12:40:44.684Z,38.13
2018-10-21T12:43:14.268Z,37.77
2018-10-21T12:45:43.545Z,38.53
2018-10-21T12:48:12.872Z,40.37
2018-10-21T12:50:42.391Z,40.40
2018-10-21T12:53:12.285Z,41.73
2018-10-21T12:55:47.652Z,40.43
2018-10-21T12:58:17.369Z,40.87
2018-10-21T13:00:46.765Z,41.23
2018-10-21T13:03:16.164Z,44.50
2018-10-21T13:05:45.484Z,41.13
2018-10-21T13:08:14.812Z,38.60
2018-10-21T13:10:45.302Z,38.87
2018-10-21T13:13:15.641Z,38.93
2018-10-21T13:15:48.294Z,37.60
2018-10-21T13:18:17.697Z,36.10
2018-10-21T13:20:47.150Z,38.33
2018-10-21T13:23:16.922Z,38.57
2018-10-21T13:25:50.933Z,35.43
2018-10-21T13:28:21.662Z,34.37
2018-10-21T13:30:50.884Z,34.13
2018-10-21T13:33:20.344Z,32.73
2018-10-21T13:35:49.689Z,32.13
2018-10-21T13:38:19.630Z,30.27
2018-10-21T13:40:48.945Z,32.70
2018-10-21T13:43:18.392Z,29.33
2018-10-21T13:45:47.715Z,27.57
2018-10-21T13:48:17.045Z,28.23
2018-10-21T13:50:46.377Z,28.97
2018-10-21T13:53:15.737Z,30.07
2018-10-21T13:55:45.085Z,28.90
2018-10-21T13:58:14.456Z,27.33
2018-10-21T14:00:43.879Z,26.23
2018-10-21T14:03:13.885Z,27.53
2018-10-21T14:05:43.229Z,28.33
2018-10-21T14:08:12.576Z,28.47
2018-10-21T14:10:42.074Z,28.50
2018-10-21T14:13:11.476Z,27.43
2018-10-21T14:15:41.465Z,25.50
2018-10-21T14:18:10.875Z,26.17
2018-10-21T14:20:40.985Z,23.13
2018-10-21T14:23:10.406Z,25.97
2018-10-21T14:25:39.770Z,27.70
2018-10-21T14:28:09.080Z,26.70
2018-10-21T14:30:38.686Z,30.20
2018-10-21T14:33:08.145Z,29.27
2018-10-21T14:35:37.524Z,30.37
2018-10-21T14:38:06.983Z,28.03
2018-10-21T14:40:36.259Z,32.37
2018-10-21T14:43:05.648Z,29.57
2018-10-21T14:45:35.057Z,29.97
2018-10-21T14:48:04.445Z,29.57
2018-10-21T14:50:33.783Z,29.50
2018-10-21T14:53:03.320Z,26.07
2018-10-21T14:55:32.721Z,24.90
2018-10-21T14:58:02.176Z,27.20
2018-10-21T15:00:31.794Z,26.03
2018-10-21T15:03:01.085Z,31.40
2018-10-21T15:05:30.344Z,29.43
2018-10-21T15:07:59.806Z,27.27
2018-10-21T15:10:29.116Z,30.10
2018-10-21T15:12:58.612Z,26.83
2018-10-21T15:15:28.022Z,30.50
2018-10-21T15:17:57.410Z,27.33
2018-10-21T15:20:27.333Z,27.10
2018-10-21T15:22:56.690Z,25.47
2018-10-21T15:25:26.057Z,27.73
2018-10-21T15:27:55.386Z,25.40
2018-10-21T15:30:24.804Z,26.33
2018-10-21T15:32:54.825Z,24.80
2018-10-21T15:35:24.149Z,24.03
2018-10-21T15:37:53.496Z,25.10
2018-10-21T15:40:22.797Z,24.60
2018-10-21T15:42:52.338Z,24.63
2018-10-21T15:45:21.698Z,26.03
2018-10-21T15:47:51.060Z,27.07
2018-10-21T15:50:20.477Z,26.73
2018-10-21T15:52:49.789Z,25.03
2018-10-21T15:55:19.123Z,26.07
2018-10-21T15:57:48.454Z,25.23
2018-10-21T16:00:17.855Z,30.10
2018-10-21T16:02:47.237Z,28.40
2018-10-21T16:05:16.717Z,30.43
2018-10-21T16:07:46.907Z,26.83
2018-10-21T16:10:16.134Z,26.57
2018-10-21T16:12:45.568Z,27.00
2018-10-21T16:15:16.089Z,29.10
2018-10-21T16:17:46.743Z,27.90
2018-10-21T16:20:16.148Z,26.43
2018-10-21T16:22:46.002Z,27.93
2018-10-21T16:25:16.130Z,26.10
2018-10-21T16:27:45.590Z,28.03
2018-10-21T16:30:15.834Z,24.90
2018-10-21T16:32:45.663Z,23.33
2018-10-21T16:35:15.186Z,25.33
2018-10-21T16:37:45.074Z,25.67
2018-10-21T16:40:16.504Z,21.93
2018-10-21T16:42:45.839Z,22.23
2018-10-21T16:45:16.073Z,22.07
2018-10-21T16:47:45.395Z,25.73
2018-10-21T16:50:16.053Z,27.83
2018-10-21T16:52:46.145Z,24.70
2018-10-21T16:55:16.333Z,23.67
2018-10-21T16:57:46.495Z,24.17
2018-10-21T17:00:17.415Z,24.73
2018-10-21T17:02:46.656Z,23.47
2018-10-21T17:05:16.075Z,23.23
2018-10-21T17:07:45.441Z,28.00
2018-10-21T17:10:15.130Z,24.00
2018-10-21T17:12:44.192Z,26.57
2018-10-21T17:15:13.617Z,27.50
2018-10-21T17:17:43.716Z,26.07
2018-10-21T17:20:14.528Z,29.23
2018-10-21T17:22:44.312Z,27.27
2018-10-21T17:25:14.396Z,28.97
2018-10-21T17:27:44.123Z,29.00
2018-10-21T17:30:16.298Z,29.33
2018-10-21T17:32:45.940Z,27.57
2018-10-21T17:35:15.698Z,29.37
2018-10-21T17:37:45.039Z,29.83
2018-10-21T17:40:14.561Z,29.67
2018-10-21T17:42:43.913Z,30.07
2018-10-21T17:45:14.492Z,28.73
2018-10-21T17:47:44.011Z,28.80
2018-10-21T17:50:15.255Z,30.07
2018-10-21T17:52:45.179Z,29.30
2018-10-21T17:55:14.835Z,29.77
2018-10-21T17:57:44.103Z,31.90
2018-10-21T18:00:14.682Z,32.33
2018-10-21T18:02:44.239Z,33.97
2018-10-21T18:05:14.785Z,31.93
2018-10-21T18:07:44.387Z,28.97
2018-10-21T18:10:13.994Z,31.83
2018-10-21T18:12:43.419Z,32.17
2018-10-21T18:15:13.013Z,34.03
2018-10-21T18:17:42.688Z,31.13
2018-10-21T18:20:13.039Z,32.40
2018-10-21T18:22:42.689Z,34.63
2018-10-21T18:25:12.154Z,30.03
2018-10-21T18:27:41.845Z,32.20
2018-10-21T18:30:12.384Z,32.43
2018-10-21T18:32:42.036Z,34.70
2018-10-21T18:35:14.193Z,35.67
2018-10-21T18:37:43.832Z,33.87
2018-10-21T18:40:13.346Z,31.83
2018-10-21T18:42:42.826Z,31.67
2018-10-21T18:45:14.471Z,33.90
2018-10-21T18:47:44.957Z,35.97
2018-10-21T18:50:15.474Z,33.90
2018-10-21T18:52:45.031Z,32.43
2018-10-21T18:55:14.667Z,34.17
2018-10-21T18:57:44.518Z,33.30
2018-10-21T19:00:16.159Z,32.00
2018-10-21T19:02:46.764Z,35.27
2018-10-21T19:05:16.457Z,31.70
2018-10-21T19:07:46.042Z,32.67
2018-10-21T19:10:16.194Z,34.53
2018-10-21T19:12:45.571Z,35.53
2018-10-21T19:15:15.110Z,32.00
2018-10-21T19:17:44.867Z,33.37
2018-10-21T19:20:16.021Z,34.10
2018-10-21T19:22:45.976Z,35.63
2018-10-21T19:25:16.529Z,33.77
2018-10-21T19:27:46.851Z,34.47
2018-10-21T19:30:16.437Z,34.10
2018-10-21T19:32:45.843Z,32.50
2018-10-21T19:35:16.102Z,36.13
2018-10-21T19:37:45.682Z,38.27
2018-10-21T19:40:15.973Z,31.77
2018-10-21T19:42:45.633Z,34.80
2018-10-21T19:45:15.472Z,37.23
2018-10-21T19:47:45.148Z,32.67
2018-10-21T19:50:15.749Z,33.73
2018-10-21T19:52:45.371Z,32.33
2018-10-21T19:55:15.027Z,37.07
2018-10-21T19:57:44.334Z,35.70
2018-10-21T20:00:15.070Z,37.87
2018-10-21T20:02:44.833Z,37.43
2018-10-21T20:05:14.395Z,35.13
2018-10-21T20:07:43.757Z,35.90
2018-10-21T20:10:14.272Z,33.07
2018-10-21T20:12:43.549Z,34.97
2018-10-21T20:15:13.428Z,38.83
2018-10-21T20:17:42.833Z,37.53
2018-10-21T20:20:12.674Z,36.83
2018-10-21T20:22:42.065Z,34.07
2018-10-21T20:25:11.737Z,42.17
2018-10-21T20:27:41.105Z,39.33
2018-10-21T20:30:11.902Z,38.07
2018-10-21T20:32:41.418Z,39.50
2018-10-21T20:35:11.747Z,37.90
2018-10-21T20:37:41.242Z,41.20
2018-10-21T20:40:11.289Z,40.27
2018-10-21T20:42:40.660Z,39.83
2018-10-21T20:45:11.447Z,42.00
2018-10-21T20:47:40.879Z,40.97
2018-10-21T20:50:10.275Z,41.90
2018-10-21T20:52:39.798Z,38.50
2018-10-21T20:55:09.126Z,39.33
2018-10-21T20:57:38.477Z,39.93
2018-10-21T21:00:08.007Z,40.93
2018-10-21T21:02:37.800Z,39.73
2018-10-21T21:05:08.245Z,40.40
2018-10-21T21:07:38.567Z,41.13
2018-10-21T21:10:08.775Z,39.43
2018-10-21T21:12:38.744Z,42.63
2018-10-21T21:15:09.594Z,42.23
2018-10-21T21:17:38.978Z,42.77
2018-10-21T21:20:08.876Z,47.63
2018-10-21T21:22:38.280Z,43.57
2018-10-21T21:25:07.704Z,45.00
2018-10-21T21:27:37.053Z,49.33
2018-10-21T21:30:07.341Z,49.80
2018-10-21T21:32:36.671Z,49.23
2018-10-21T21:35:07.219Z,43.97
2018-10-21T21:37:36.674Z,47.40
2018-10-21T21:40:07.825Z,48.63
2018-10-21T21:42:37.992Z,49.07
2018-10-21T21:45:07.808Z,48.20
2018-10-21T21:47:37.115Z,48.93
2018-10-21T21:50:07.543Z,50.97
2018-10-21T21:52:36.920Z,45.00
2018-10-21T21:55:06.737Z,48.93
2018-10-21T21:57:36.096Z,52.13
2018-10-21T22:00:08.561Z,56.40
2018-10-21T22:02:37.952Z,50.70
2018-10-21T22:05:08.590Z,50.37
2018-10-21T22:07:39.155Z,53.63
2018-10-21T22:10:10.124Z,53.43
2018-10-21T22:12:39.481Z,56.73
2018-10-21T22:15:08.849Z,55.10
2018-10-21T22:17:39.647Z,55.57
2018-10-21T22:20:08.981Z,58.30
2018-10-21T22:22:38.289Z,60.20
2018-10-21T22:25:07.752Z,66.70
2018-10-21T22:27:37.113Z,66.93
2018-10-21T22:30:08.027Z,68.70
2018-10-21T22:32:37.280Z,62.20
2018-10-21T22:35:07.656Z,73.10
2018-10-21T22:37:37.159Z,69.43
2018-10-21T22:40:06.624Z,75.03
2018-10-21T22:42:36.032Z,71.73
2018-10-21T22:45:07.039Z,69.17
2018-10-21T22:47:36.383Z,74.57
2018-10-21T22:50:07.444Z,70.53
2018-10-21T22:52:36.776Z,72.80
2018-10-21T22:55:06.878Z,79.03
2018-10-21T22:57:36.809Z,74.37
2018-10-21T23:00:08.232Z,72.43
2018-10-21T23:02:37.515Z,78.67
2018-10-21T23:05:07.970Z,79.63
2018-10-21T23:07:37.928Z,75.20
2018-10-21T23:10:07.389Z,76.20
2018-10-21T23:12:36.690Z,82.53
2018-10-21T23:15:06.945Z,77.40
2018-10-21T23:17:36.306Z,74.13
2018-10-21T23:20:06.915Z,72.67
2018-10-21T23:22:36.340Z,79.47
2018-10-21T23:25:06.617Z,73.03
2018-10-21T23:27:36.076Z,76.53
2018-10-21T23:30:06.538Z,86.57
2018-10-21T23:32:35.881Z,87.43
2018-10-21T23:35:05.713Z,90.10
2018-10-21T23:37:35.011Z,89.90
2018-10-21T23:40:04.571Z,103.93
2018-10-21T23:42:33.888Z,102.17
2018-10-21T23:45:03.275Z,105.57
2018-10-21T23:47:32.638Z,116.87
2018-10-21T23:50:01.959Z,121.27
2018-10-21T23:52:31.331Z,124.57
2018-10-21T23:55:00.674Z,133.23
2018-10-21T23:57:30.159Z,142.63
2018-10-21T23:59:59.532Z,144.97
